createdAt,value
2019-01-28T00:01:53.935Z,79.00
2019-01-28T00:04:24.259Z,78.40
2019-01-28T00:07:14.295Z,78.80
2019-01-28T00:09:44.478Z,78.70
2019-01-28T00:12:14.427Z,78.30
2019-01-28T00:15:04.534Z,77.20
2019-01-28T00:17:54.444Z,77.40
2019-01-28T00:20:44.371Z,75.60
2019-01-28T00:23:55.285Z,76.90
2019-01-28T00:26:27.902Z,75.90
2019-01-28T00:29:17.008Z,75.50
2019-01-28T00:35:03.953Z,74.70
2019-01-28T00:37:55.233Z,75.10
2019-01-28T00:40:26.536Z,74.30
2019-01-28T00:46:10.711Z,74.40
2019-01-28T00:49:02.153Z,74.00
2019-01-28T00:51:42.058Z,74.60
2019-01-28T00:57:14.013Z,75.50
2019-01-28T00:59:47.339Z,75.50
2019-01-28T01:02:17.889Z,76.70
2019-01-28T01:04:48.872Z,76.60
2019-01-28T01:07:26.403Z,75.90
2019-01-28T01:09:56.490Z,76.10
2019-01-28T01:13:02.246Z,76.10
2019-01-28T01:15:52.403Z,75.40
2019-01-28T01:18:22.622Z,75.50
2019-01-28T01:20:55.280Z,75.30
2019-01-28T01:23:44.625Z,75.70
2019-01-28T01:26:14.547Z,75.60
2019-01-28T01:29:04.037Z,75.80
2019-01-28T01:31:34.495Z,76.50
2019-01-28T01:34:05.587Z,76.00
2019-01-28T01:36:36.454Z,76.40
2019-01-28T01:39:07.636Z,77.00
2019-01-28T01:41:37.717Z,76.90
2019-01-28T01:44:10.920Z,76.90
2019-01-28T01:46:42.490Z,76.90
2019-01-28T01:49:12.831Z,76.90
2019-01-28T01:51:45.688Z,76.90
2019-01-28T01:54:35.427Z,76.90
2019-01-28T01:57:05.292Z,76.90
2019-01-28T01:59:54.708Z,76.90
2019-01-28T02:02:44.366Z,76.90
2019-01-28T02:05:14.688Z,76.80
2019-01-28T02:07:48.782Z,77.50
2019-01-28T02:10:21.535Z,77.70
2019-01-28T02:15:26.822Z,77.70
2019-01-28T02:18:16.571Z,78.20
2019-01-28T02:21:06.187Z,78.50
2019-01-28T02:23:36.347Z,78.40
2019-01-28T02:26:26.124Z,78.90
2019-01-28T02:29:15.735Z,78.80
2019-01-28T02:32:05.143Z,79.00
2019-01-28T02:34:35.169Z,79.10
2019-01-28T02:37:05.277Z,79.40
2019-01-28T02:39:54.815Z,79.50
2019-01-28T02:42:45.308Z,79.50
2019-01-28T02:45:15.941Z,79.80
2019-01-28T02:47:45.710Z,79.80
2019-01-28T02:50:35.191Z,79.30
2019-01-28T02:53:24.905Z,79.20
2019-01-28T02:56:14.757Z,79.40
2019-01-28T02:58:45.206Z,79.80
2019-01-28T03:01:15.232Z,79.30
2019-01-28T03:04:04.870Z,79.30
2019-01-28T03:06:54.341Z,79.00
2019-01-28T03:09:44.018Z,78.30
2019-01-28T03:12:33.391Z,77.80
2019-01-28T03:15:04.542Z,76.90
2019-01-28T03:17:34.507Z,77.10
2019-01-28T03:20:24.236Z,77.10
2019-01-28T03:22:54.427Z,76.80
2019-01-28T03:25:44.253Z,76.40
2019-01-28T03:28:14.400Z,76.10
2019-01-28T03:30:44.581Z,75.50
2019-01-28T03:33:14.548Z,74.70
2019-01-28T03:35:44.693Z,74.80
2019-01-28T03:38:14.600Z,74.50
2019-01-28T03:41:04.084Z,75.00
2019-01-28T03:43:34.014Z,74.40
2019-01-28T03:46:23.536Z,73.80
2019-01-28T03:49:13.070Z,74.20
2019-01-28T03:52:02.999Z,74.30
2019-01-28T03:54:52.673Z,74.40
2019-01-28T03:57:22.709Z,73.50
2019-01-28T03:59:52.830Z,73.20
2019-01-28T04:02:23.068Z,72.50
2019-01-28T04:04:53.039Z,72.50
2019-01-28T04:07:23.082Z,73.00
2019-01-28T04:10:33.385Z,72.00
2019-01-28T04:13:03.734Z,71.40
2019-01-28T04:15:46.320Z,71.90
2019-01-28T04:18:36.230Z,71.40
2019-01-28T04:21:25.789Z,71.30
2019-01-28T04:24:15.177Z,71.50
2019-01-28T04:26:45.278Z,71.50
2019-01-28T04:29:15.369Z,70.50
2019-01-28T04:31:45.480Z,70.30
2019-01-28T04:34:15.542Z,70.80
2019-01-28T04:36:45.578Z,70.50
2019-01-28T04:39:15.676Z,70.20
2019-01-28T04:41:46.128Z,70.00
2019-01-28T04:44:17.961Z,70.30
2019-01-28T04:47:06.289Z,70.20
2019-01-28T04:49:36.382Z,70.80
2019-01-28T04:52:25.965Z,71.50
2019-01-28T04:55:15.596Z,71.80
2019-01-28T04:58:05.079Z,72.10
2019-01-28T05:00:54.441Z,72.90
2019-01-28T05:03:43.911Z,73.00
2019-01-28T05:06:33.526Z,73.50
2019-01-28T05:09:07.735Z,73.80
2019-01-28T05:11:37.764Z,75.00
2019-01-28T05:14:07.781Z,75.10
2019-01-28T05:16:37.859Z,75.10
2019-01-28T05:19:08.394Z,75.60
2019-01-28T05:21:38.619Z,76.20
2019-01-28T05:24:28.398Z,76.00
2019-01-28T05:26:58.475Z,76.00
2019-01-28T05:29:48.470Z,75.90
2019-01-28T05:32:38.301Z,75.60
2019-01-28T05:35:10.139Z,75.00
2019-01-28T05:38:00.911Z,75.10
2019-01-28T05:40:32.076Z,75.30
2019-01-28T05:43:21.647Z,75.80
2019-01-28T05:45:52.085Z,76.70
2019-01-28T05:48:22.243Z,76.90
2019-01-28T05:51:11.941Z,77.50
2019-01-28T05:53:42.057Z,77.90
2019-01-28T05:59:06.946Z,78.30
2019-01-28T06:05:13.131Z,78.70
2019-01-28T06:08:05.367Z,79.20
2019-01-28T06:10:35.717Z,79.30
2019-01-28T06:13:25.156Z,79.40
2019-01-28T06:16:14.632Z,79.50
2019-01-28T06:18:44.821Z,80.00
2019-01-28T06:21:34.602Z,80.20
2019-01-28T06:24:05.028Z,80.20
2019-01-28T06:26:45.153Z,80.90
2019-01-28T06:29:15.343Z,81.10
2019-01-28T06:32:05.129Z,81.00
2019-01-28T06:34:54.737Z,81.00
2019-01-28T06:37:41.775Z,81.20
2019-01-28T06:40:54.859Z,81.20
2019-01-28T06:43:44.670Z,81.40
2019-01-28T06:46:34.429Z,82.10
2019-01-28T06:49:24.754Z,82.10
2019-01-28T06:58:09.318Z,83.10
2019-01-28T07:03:35.245Z,83.10
2019-01-28T07:06:07.068Z,83.00
2019-01-28T07:09:38.055Z,83.00
2019-01-28T07:12:08.638Z,82.90
2019-01-28T07:17:55.134Z,81.90
2019-01-28T07:20:45.319Z,82.50
2019-01-28T07:23:35.247Z,82.50
2019-01-28T07:26:25.030Z,82.50
2019-01-28T07:29:14.731Z,82.80
2019-01-28T07:32:04.497Z,82.00
2019-01-28T07:34:54.067Z,81.90
2019-01-28T07:37:44.315Z,82.10
2019-01-28T07:40:34.217Z,82.00
2019-01-28T07:43:04.572Z,81.90
2019-01-28T07:45:44.657Z,81.30
2019-01-28T07:48:09.176Z,81.30
2019-01-28T07:50:39.583Z,81.30
2019-01-28T07:53:09.634Z,81.40
2019-01-28T07:55:39.692Z,81.40
2019-01-28T07:58:09.795Z,80.50
2019-01-28T08:00:39.955Z,80.80
2019-01-28T08:03:29.613Z,81.00
2019-01-28T08:05:59.953Z,80.70
2019-01-28T08:08:49.535Z,80.20
2019-01-28T08:11:19.764Z,79.80
2019-01-28T08:14:09.412Z,78.90
2019-01-28T08:16:58.000Z,77.90
2019-01-28T08:19:41.754Z,78.70
2019-01-28T08:22:31.490Z,78.80
2019-01-28T08:25:01.569Z,77.60
2019-01-28T08:27:51.080Z,79.10
2019-01-28T08:30:36.120Z,79.30
2019-01-28T08:33:07.122Z,78.80
2019-01-28T08:35:38.369Z,77.60
2019-01-28T08:38:09.313Z,77.80
2019-01-28T08:40:59.583Z,77.40
2019-01-28T08:43:29.769Z,76.80
2019-01-28T08:45:59.935Z,75.70
2019-01-28T08:48:30.222Z,74.80
2019-01-28T08:51:00.619Z,75.10
2019-01-28T08:53:50.827Z,74.70
2019-01-28T08:56:21.001Z,74.90
2019-01-28T08:58:51.427Z,73.70
2019-01-28T09:01:41.186Z,73.70
2019-01-28T09:04:12.169Z,74.70
2019-01-28T09:06:43.020Z,73.00
2019-01-28T09:09:32.910Z,73.00
2019-01-28T09:12:22.636Z,71.90
2019-01-28T09:14:52.794Z,72.50
2019-01-28T09:17:42.197Z,72.20
2019-01-28T09:20:28.345Z,71.40
2019-01-28T09:23:18.638Z,71.20
2019-01-28T09:25:52.669Z,70.10
2019-01-28T09:34:14.459Z,69.10
2019-01-28T09:43:01.806Z,71.10
2019-01-28T09:45:41.882Z,71.00
2019-01-28T09:48:34.359Z,70.80
2019-01-28T09:54:55.066Z,69.40
2019-01-28T10:00:36.281Z,71.30
2019-01-28T10:03:07.974Z,70.60
2019-01-28T10:05:38.519Z,69.60
2019-01-28T10:08:09.481Z,70.10
2019-01-28T10:11:00.106Z,69.00
2019-01-28T10:13:31.389Z,68.40
2019-01-28T10:16:19.776Z,69.30
2019-01-28T10:18:51.312Z,69.00
2019-01-28T10:40:36.489Z,70.50
2019-01-28T10:43:09.057Z,70.00
2019-01-28T10:48:11.462Z,71.10
2019-01-28T10:50:44.229Z,71.40
2019-01-28T10:53:17.830Z,72.20
2019-01-28T10:55:48.764Z,73.40
2019-01-28T10:58:38.613Z,73.80
2019-01-28T11:01:09.277Z,73.10
2019-01-28T11:03:59.488Z,73.80
2019-01-28T11:06:49.206Z,73.40
2019-01-28T11:09:19.744Z,73.30
2019-01-28T11:12:09.805Z,72.80
2019-01-28T11:17:16.076Z,71.90
2019-01-28T11:19:46.425Z,72.40
2019-01-28T11:22:16.630Z,71.90
2019-01-28T11:24:47.716Z,71.30
2019-01-28T11:31:08.244Z,70.70
2019-01-28T11:34:05.832Z,70.60
2019-01-28T11:36:42.155Z,70.30
2019-01-28T11:52:27.189Z,69.10
2019-01-28T11:54:58.197Z,70.20
2019-01-28T11:57:39.946Z,70.30
2019-01-28T12:00:56.252Z,70.00
2019-01-28T12:07:12.986Z,69.10
2019-01-28T12:09:53.140Z,69.00
2019-01-28T12:15:41.351Z,70.20
2019-01-28T12:18:24.195Z,69.10
2019-01-28T12:24:21.724Z,69.30
2019-01-28T12:29:36.230Z,68.80
2019-01-28T12:32:06.561Z,69.90
2019-01-28T12:34:48.243Z,71.10
2019-01-28T12:40:47.921Z,71.40
2019-01-28T12:43:43.633Z,72.80
2019-01-28T12:46:18.098Z,75.00
2019-01-28T12:49:11.712Z,74.40
2019-01-28T12:51:47.609Z,74.60
2019-01-28T12:54:20.794Z,75.30
2019-01-28T12:56:52.058Z,73.80
2019-01-28T12:59:29.035Z,77.10
2019-01-28T13:17:18.086Z,77.70
2019-01-28T13:20:09.135Z,79.80
2019-01-28T13:25:56.492Z,81.10
2019-01-28T13:29:08.849Z,79.80
2019-01-28T13:44:08.953Z,84.50
2019-01-28T13:46:40.917Z,85.30
2019-01-28T13:49:37.957Z,86.20
2019-01-28T13:52:25.958Z,86.20
2019-01-28T13:54:57.097Z,87.00
2019-01-28T13:57:29.018Z,87.10
2019-01-28T13:59:59.724Z,87.60
2019-01-28T14:02:30.692Z,87.90
2019-01-28T14:08:03.821Z,87.80
2019-01-28T14:10:51.848Z,88.70
2019-01-28T14:13:25.361Z,89.70
2019-01-28T14:16:16.405Z,90.20
2019-01-28T14:21:53.611Z,90.20
2019-01-28T14:24:45.502Z,90.20
2019-01-28T14:27:22.919Z,90.40
2019-01-28T14:30:02.613Z,90.30
2019-01-28T14:35:55.991Z,90.90
2019-01-28T14:41:26.631Z,91.30
2019-01-28T14:43:57.419Z,91.30
2019-01-28T14:46:30.589Z,91.20
2019-01-28T14:49:06.975Z,91.60
2019-01-28T15:06:29.190Z,91.60
2019-01-28T15:12:11.439Z,91.50
2019-01-28T15:23:33.632Z,92.00
2019-01-28T15:26:23.711Z,92.00
2019-01-28T15:28:54.964Z,92.00
2019-01-28T15:31:25.446Z,92.20
2019-01-28T15:36:43.986Z,92.60
2019-01-28T15:42:33.479Z,92.70
2019-01-28T15:45:26.799Z,93.20
2019-01-28T15:48:18.552Z,93.00
2019-01-28T15:54:05.471Z,93.00
2019-01-28T16:11:48.662Z,93.40
2019-01-28T16:14:38.436Z,93.60
2019-01-28T16:17:28.651Z,93.70
2019-01-28T16:20:37.938Z,93.80
2019-01-28T16:23:08.888Z,93.80
2019-01-28T16:25:39.233Z,94.00
2019-01-28T16:28:09.876Z,93.90
2019-01-28T16:31:01.578Z,93.80
2019-01-28T16:39:13.899Z,93.90
2019-01-28T16:48:53.345Z,93.70
2019-01-28T16:50:43.488Z,93.30
2019-01-28T16:53:33.737Z,93.20
2019-01-28T16:56:25.536Z,93.30
2019-01-28T17:01:42.267Z,93.00
2019-01-28T17:04:13.525Z,93.40
2019-01-28T17:07:07.207Z,93.50
2019-01-28T17:15:32.185Z,93.00
2019-01-28T17:27:21.567Z,92.50
2019-01-28T17:30:18.612Z,92.30
2019-01-28T17:38:45.133Z,92.80
2019-01-28T17:41:30.605Z,91.80
2019-01-28T17:44:01.752Z,91.80
2019-01-28T17:46:33.566Z,92.20
2019-01-28T17:49:09.195Z,91.80
2019-01-28T17:51:40.025Z,91.80
2019-01-28T17:54:30.276Z,91.80
2019-01-28T17:57:01.215Z,91.80
2019-01-28T18:02:34.401Z,93.00
2019-01-28T18:05:18.350Z,92.50
2019-01-28T18:34:34.541Z,91.60
2019-01-28T18:37:12.777Z,92.20
2019-01-28T19:03:11.287Z,92.30
2019-01-28T19:11:21.713Z,92.00
2019-01-28T19:14:19.695Z,92.40
2019-01-28T19:17:33.578Z,92.30
2019-01-28T19:33:00.027Z,90.50
2019-01-28T19:38:26.970Z,90.10
2019-01-28T19:41:28.156Z,87.30
2019-01-28T19:53:17.584Z,83.80
2019-01-28T19:58:57.104Z,81.10
2019-01-28T20:01:28.629Z,80.10
2019-01-28T20:12:50.141Z,82.70
2019-01-28T20:15:22.303Z,82.30
2019-01-28T20:17:52.947Z,82.70
2019-01-28T20:20:23.845Z,81.10
2019-01-28T20:22:54.158Z,80.00
2019-01-28T20:25:25.007Z,79.80
2019-01-28T20:27:55.512Z,79.80
2019-01-28T20:30:27.654Z,80.50
2019-01-28T20:32:57.887Z,80.10
2019-01-28T20:35:30.055Z,79.70
2019-01-28T20:38:04.587Z,80.20
2019-01-28T20:40:37.670Z,80.00
2019-01-28T20:43:23.998Z,77.90
2019-01-28T20:45:56.374Z,78.00
2019-01-28T20:48:26.908Z,77.20
2019-01-28T20:50:58.532Z,78.00
2019-01-28T20:53:31.269Z,79.00
2019-01-28T20:56:01.854Z,77.30
2019-01-28T20:58:33.149Z,78.00
2019-01-28T21:01:08.833Z,78.50
2019-01-28T21:03:39.677Z,79.40
2019-01-28T21:06:11.145Z,77.30
2019-01-28T21:08:43.118Z,78.30
2019-01-28T21:11:15.146Z,78.70
2019-01-28T21:13:46.881Z,78.00
2019-01-28T21:16:17.509Z,78.80
2019-01-28T21:18:49.023Z,78.60
2019-01-28T21:21:21.914Z,80.10
2019-01-28T21:23:52.440Z,79.90
2019-01-28T21:26:22.692Z,79.80
2019-01-28T21:28:54.526Z,78.60
2019-01-28T21:31:25.177Z,77.90
2019-01-28T21:33:55.819Z,78.70
2019-01-28T21:36:33.434Z,78.30
2019-01-28T21:39:14.075Z,80.00
2019-01-28T21:41:45.121Z,78.30
2019-01-28T21:44:31.632Z,77.90
2019-01-28T21:47:01.864Z,77.90
2019-01-28T21:57:37.112Z,78.00
2019-01-28T22:00:07.916Z,77.50
2019-01-28T22:02:38.173Z,77.90
2019-01-28T22:05:13.875Z,78.40
2019-01-28T22:07:43.962Z,78.70
2019-01-28T22:10:14.521Z,80.00
2019-01-28T22:12:44.734Z,80.40
2019-01-28T22:15:18.721Z,80.90
2019-01-28T22:17:52.860Z,81.70
2019-01-28T22:20:25.046Z,82.20
2019-01-28T22:23:11.060Z,82.80
2019-01-28T22:25:41.399Z,83.20
2019-01-28T22:28:14.900Z,83.60
2019-01-28T22:30:54.700Z,84.30
2019-01-28T22:33:29.168Z,84.80
2019-01-28T22:35:59.759Z,85.60
2019-01-28T22:38:30.438Z,85.90
2019-01-28T22:41:00.886Z,86.20
2019-01-28T22:43:31.507Z,86.30
2019-01-28T22:46:01.512Z,86.40
2019-01-28T22:48:31.563Z,86.10
2019-01-28T22:51:01.895Z,86.10
2019-01-28T22:53:31.790Z,85.80
2019-01-28T22:56:01.814Z,84.90
2019-01-28T22:58:31.839Z,85.00
2019-01-28T23:01:35.979Z,85.50
2019-01-28T23:04:06.710Z,84.70
2019-01-28T23:06:37.211Z,84.70
2019-01-28T23:09:10.003Z,84.70
2019-01-28T23:11:39.939Z,83.20
2019-01-28T23:14:10.129Z,84.10
2019-01-28T23:16:40.291Z,82.70
2019-01-28T23:19:10.395Z,80.70
2019-01-28T23:21:41.747Z,81.00
2019-01-28T23:24:11.848Z,81.90
2019-01-28T23:26:41.948Z,83.10
2019-01-28T23:29:11.894Z,83.10
2019-01-28T23:31:41.772Z,83.30
2019-01-28T23:34:11.828Z,82.70
2019-01-28T23:36:41.813Z,83.00
2019-01-28T23:39:11.782Z,83.20
2019-01-28T23:41:41.681Z,83.40
2019-01-28T23:44:11.588Z,83.90
2019-01-28T23:46:41.551Z,84.60
2019-01-28T23:49:11.454Z,84.60
2019-01-28T23:51:41.466Z,84.60
2019-01-28T23:54:11.772Z,84.60
2019-01-28T23:56:41.868Z,85.10
2019-01-28T23:59:11.868Z,84.80
